• Join FlightAware (Why Join?)
  • Login
  • US Flag 
07:54PM EDT


 

Airport Tracker/Info


-or-


 

Live Flight TrackerFlight Track Log ✈ SKW6252 ✈ 02-May-2013 ✈ KBFL - KDEN

Flight Track Log - Related Links

Times and Time Zones

All times are in EDT time to prevent confusion due to time zone crossing. See the SKW6252 flight status page for this flight to view local times or setup timezone preferences in your user account.

Time Position Orientation Groundspeed Altitude Reporting Facility
EDT Latitude Longitude Course Direction KTS MPH feet Rate Location/Type
10:03AM 35.3533 -118.9569 131° Southeast 222 255 4,700  Level Los Angeles Center
10:04AM 35.3050 -118.8942 133° Southeast 262 302 6,500 2,100 Climbing Los Angeles Center
10:05AM 35.0153 -118.5646 129° Southeast  Level FlightAware Approximate
10:05AM 35.2503 -118.8264 135° Southeast 278 320 9,100  Level Los Angeles Center
10:06AM 34.9357 -118.4618 129° Southeast  Level FlightAware Approximate
10:06AM 35.1925 -118.7556 135° Southeast 289 333 10,800  Level Los Angeles Center
10:07AM 34.8585 -118.3557 132° Southeast  Level FlightAware Approximate
10:07AM 35.1294 -118.6744 134° Southeast 321 369 12,400  Level Los Angeles Center
10:08AM 34.7758 -118.2564 131° Southeast  Level FlightAware Approximate
10:08AM 35.0483 -118.5772 136° Southeast 338 389 14,500  Level Los Angeles Center
10:09AM 34.9808 -118.4936 135° Southeast 345 397 16,100 1,500 Climbing Los Angeles Center
10:10AM 34.9089 -118.4039 134° Southeast 348 400 17,700 1,200 Climbing Los Angeles Center
10:11AM 34.8378 -118.3189 136° Southeast 356 410 18,700 1,260 Climbing Los Angeles Center
10:12AM 34.7525 -118.2144 135° Southeast 362 417 20,300 1,320 Climbing Los Angeles Center
10:13AM 34.6806 -118.1261 135° Southeast 368 423 21,500 960 Climbing Los Angeles Center
10:14AM 34.6369 -118.0169 116° Southeast 381 438 22,400 780 Climbing Los Angeles Center
10:15AM 34.6503 -117.8900 83° East 382 440 23,300 780 Climbing Los Angeles Center
10:16AM 34.6675 -117.7339 82° East 392 451 24,200 780 Climbing Los Angeles Center
10:17AM 34.6808 -117.5986 83° East 403 464 25,000 900 Climbing Los Angeles Center
10:18AM 34.6978 -117.4344 83° East 411 473 26,100 960 Climbing Los Angeles Center
10:19AM 34.7286 -117.3061 74° East 402 463 27,000 840 Climbing Los Angeles Center
10:20AM 34.7692 -117.1811 68° East 402 463 27,900 720 Climbing Los Angeles Center
10:21AM 34.8089 -117.0539 69° East 406 467 28,500 480 Climbing Los Angeles Center
10:23AM 34.8511 -116.9272 68° East 406 467 29,000 480 Climbing Los Angeles Center
10:24AM 34.9278 -116.7911 55° Northeast 422 486 29,600 480 Climbing Los Angeles Center
10:25AM 35.0175 -116.6658 49° Northeast 413 475 30,200 480 Climbing Los Angeles Center
10:26AM 35.0933 -116.5603 49° Northeast 416 479 30,700 480 Climbing Los Angeles Center
10:27AM 35.1697 -116.4528 49° Northeast 419 482 31,200 480 Climbing Los Angeles Center
10:28AM 35.2483 -116.3469 48° Northeast 419 482 31,800 480 Climbing Los Angeles Center
10:29AM 35.3236 -116.2411 49° Northeast 416 479 32,300 360 Climbing Los Angeles Center
10:30AM 35.4125 -116.1125 50° Northeast 414 476 32,600 300 Climbing Los Angeles Center
10:31AM 35.4900 -116.0058 48° Northeast 418 481 33,000 180 Climbing Los Angeles Center
10:32AM 35.5678 -115.8967 49° Northeast 425 489 33,000  Level Los Angeles Center
10:33AM 35.6344 -115.8006 50° Northeast 431 496 33,000  Level Los Angeles Center
10:34AM 35.7294 -115.6650 49° Northeast 439 505 33,000  Level Los Angeles Center
10:35AM 35.8097 -115.5494 49° Northeast 445 512 33,000  Level Los Angeles Center
10:36AM 35.9064 -115.4103 49° Northeast 449 517 33,000  Level Los Angeles Center
10:37AM 35.9872 -115.2947 49° Northeast 450 518 33,000  Level Los Angeles Center
10:38AM 36.0642 -115.1786 51° Northeast 442 509 33,000  Level Los Angeles Center
10:39AM 36.1169 -115.0364 65° Northeast 455 524 33,000  Level Los Angeles Center
10:40AM 36.1622 -114.8906 69° East 457 526 33,000  Level Los Angeles Center
10:42AM 36.2072 -114.7439 69° East 458 527 33,000  Level Los Angeles Center
10:43AM 36.2694 -114.5375 69° East 459 528 33,000  Level Los Angeles Center
10:44AM 36.3142 -114.3914 69° East 455 524 33,000  Level Los Angeles Center
10:45AM 36.3583 -114.2444 69° East 455 524 33,000  Level Los Angeles Center
10:46AM 36.4117 -114.0672 69° East 456 525 33,000  Level Los Angeles Center
10:47AM 36.4556 -113.9200 70° East 457 526 33,000  Level Los Angeles Center
10:48AM 36.5114 -113.7503 68° East 456 525 33,000  Level Los Angeles Center
10:49AM 36.5625 -113.6067 66° East 456 525 33,000  Level Los Angeles Center
10:50AM 36.6122 -113.4622 67° East 456 525 33,000  Level Los Angeles Center
10:51AM 36.6719 -113.2881 67° East 457 526 33,000  Level Los Angeles Center
10:52AM 36.7219 -113.1425 67° East 459 528 33,000  Level Los Angeles Center
10:53AM 36.7828 -112.9664 67° East 463 533 33,000  Level Los Angeles Center
10:54AM 36.8322 -112.8194 67° East 462 532 33,000  Level Los Angeles Center
10:55AM 36.8825 -112.6725 67° East 464 534 33,000  Level Los Angeles Center
10:56AM 36.9328 -112.5247 67° East 466 536 33,000  Level Los Angeles Center
10:57AM 36.9811 -112.3778 68° East 463 533 33,000  Level Los Angeles Center
10:58AM 37.0414 -112.1994 67° East 466 536 33,000  Level Los Angeles Center
10:59AM 37.0914 -112.0503 67° East 468 539 33,000  Level Los Angeles Center
11:00AM 37.1014 -112.0208 67° East 468 539 33,000  Level Denver Center
11:01AM 37.1403 -111.9006 68° East 468 539 33,000  Level Los Angeles Center
11:01AM 37.1611 -111.8408 66° East 469 540 33,000  Level Denver Center
11:02AM 37.2103 -111.6911 68° East 468 539 33,000  Level Denver Center
11:03AM 37.2575 -111.5433 68° East 464 534 33,000  Level Denver Center
11:04AM 37.3042 -111.3942 68° East 462 532 33,000  Level Denver Center
11:05AM 37.3531 -111.2461 67° East 461 531 33,000  Level Denver Center
11:06AM 37.4000 -111.0967 68° East 462 532 33,000  Level Denver Center
11:07AM 37.4583 -110.9175 68° East 463 533 33,000  Level Denver Center
11:08AM 37.5053 -110.7664 69° East 464 534 33,000  Level Denver Center
11:09AM 37.5525 -110.6169 68° East 462 532 33,000  Level Denver Center
11:10AM 37.6033 -110.4517 69° East 461 531 33,000  Level Denver Center
11:11AM 37.6492 -110.3078 68° East 462 532 33,000  Level Denver Center
11:12AM 37.7014 -110.1397 69° East 459 528 33,000  Level Denver Center
11:13AM 37.7453 -109.9944 69° East 462 532 33,000  Level Denver Center
11:14AM 37.7900 -109.8497 69° East 460 529 33,000  Level Denver Center
11:15AM 37.8425 -109.6811 68° East 460 529 33,000  Level Denver Center
11:16AM 37.8858 -109.5350 69° East 462 532 33,000  Level Denver Center
11:17AM 37.9364 -109.3658 69° East 460 529 33,000  Level Denver Center
11:18AM 37.9808 -109.2200 69° East 462 532 33,000  Level Denver Center
11:19AM 38.0308 -109.0494 70° East 462 532 33,000  Level Denver Center
11:20AM 38.0786 -108.8861 70° East 463 533 33,000  Level Denver Center
11:22AM 38.1208 -108.7428 69° East 457 526 33,000  Level Denver Center
11:23AM 38.1700 -108.5736 70° East 456 525 33,000  Level Denver Center
11:24AM 38.2125 -108.4297 69° East 455 524 33,000  Level Denver Center
11:25AM 38.2536 -108.2872 70° East 452 520 33,000  Level Denver Center
11:26AM 38.3025 -108.1192 70° East 454 522 33,000  Level Denver Center
11:27AM 38.3522 -107.9831 65° Northeast 449 517 33,000  Level Denver Center
11:28AM 38.4183 -107.8300 61° Northeast 443 510 33,000  Level Denver Center
11:29AM 38.4744 -107.6983 61° Northeast 443 510 33,000  Level Denver Center
11:30AM 38.5414 -107.5425 61° Northeast 449 517 33,000  Level Denver Center
11:31AM 38.5989 -107.4081 61° Northeast 450 518 33,000  Level Denver Center
11:32AM 38.6650 -107.2514 62° Northeast 450 518 33,000  Level Denver Center
11:33AM 38.7183 -107.1258 61° Northeast 454 522 33,000  Level Denver Center
11:34AM 38.7897 -106.9575 61° Northeast 452 520 33,000  Level Denver Center
11:35AM 38.8494 -106.8164 61° Northeast 452 520 33,000  Level Denver Center
11:36AM 38.9128 -106.6628 62° Northeast 455 524 33,000  Level Denver Center
11:37AM 38.9689 -106.5272 62° Northeast 453 521 33,000  Level Denver Center
11:38AM 39.0356 -106.3678 62° Northeast 454 522 33,000 -60 Level Denver Center
11:39AM 39.0917 -106.2303 62° Northeast 454 522 32,900 -1,740 Descending Denver Center
11:40AM 39.1564 -106.0708 62° Northeast 460 529 29,500 -2,940 Descending Denver Center
11:41AM 39.2111 -105.9372 62° Northeast 428 493 26,900 -2,460 Descending Denver Center
11:42AM 39.2603 -105.8144 63° Northeast 392 451 24,500 -2,280 Descending Denver Center
11:43AM 39.3064 -105.7008 62° Northeast 363 418 22,300 -1,980 Descending Denver Center
11:44AM 39.3500 -105.5958 62° Northeast 338 389 20,400 -1,860 Descending Denver Center
11:45AM 39.3983 -105.4756 62° Northeast 323 372 18,500 -1,260 Descending Denver Center
11:46AM 39.4017 -105.3553 88° East 328 377 17,900 -960 Descending Denver Center
11:47AM 39.4069 -105.2411 87° East 322 371 16,600 -1,260 Descending Denver Center
11:48AM 39.4114 -105.1211 87° East 314 361 15,400 -1,260 Descending Denver Center
11:49AM 39.4158 -105.0133 87° East 305 351 14,000 -1,380 Descending Denver Center
11:50AM 39.4231 -104.9008 85° East 295 339 12,600 -1,320 Descending Denver Center
11:52AM 39.4833 -104.8367 39° Northeast 289 333 11,300 -1,260 Descending Denver Center
11:53AM 39.5556 -104.7897 27° Northeast 271 312 10,100 -780 Descending Denver Center
11:54AM 39.6075 -104.7536 28° Northeast 214 246 9,800 -660 Descending Denver Center
11:55AM 39.6636 -104.7128 29° Northeast 213 245 8,800 -1,020 Descending Denver Center
11:56AM 39.7194 -104.6717 30° Northeast 228 262 7,800 -1,020 Descending Denver Center
11:57AM 39.7719 -104.6617 North 180 207 6,700 -960 Descending Denver Center
11:58AM 39.8122 -104.6614 360° North 151 174 5,900 -780 Descending Denver Center